createdAt,value
2023-01-20T00:00:31.771Z,36.90
2023-01-20T00:02:59.417Z,38.47
2023-01-20T00:05:26.962Z,39.00
2023-01-20T00:07:54.512Z,36.50
2023-01-20T00:10:21.996Z,33.57
2023-01-20T00:12:49.535Z,38.87
2023-01-20T00:15:17.102Z,36.03
2023-01-20T00:17:44.670Z,34.43
2023-01-20T00:20:12.617Z,33.60
2023-01-20T00:22:40.217Z,31.87
2023-01-20T00:25:07.805Z,34.27
2023-01-20T00:27:35.421Z,33.27
2023-01-20T00:30:02.972Z,32.57
2023-01-20T00:32:30.516Z,36.40
2023-01-20T00:34:57.974Z,32.10
2023-01-20T00:37:25.600Z,31.63
2023-01-20T00:39:53.102Z,33.73
2023-01-20T00:42:20.703Z,37.53
2023-01-20T00:44:48.214Z,41.60
2023-01-20T00:47:16.025Z,32.27
2023-01-20T00:49:43.537Z,36.73
2023-01-20T00:52:11.234Z,34.93
2023-01-20T00:54:38.715Z,34.23
2023-01-20T00:57:06.278Z,35.83
2023-01-20T00:59:33.747Z,38.20
2023-01-20T01:02:01.362Z,35.93
2023-01-20T01:04:28.965Z,41.03
2023-01-20T01:06:56.509Z,41.47
2023-01-20T01:09:24.109Z,43.87
2023-01-20T01:11:51.693Z,49.60
2023-01-20T01:14:19.206Z,43.90
2023-01-20T01:16:46.810Z,35.10
2023-01-20T01:19:14.533Z,43.77
2023-01-20T01:21:42.069Z,42.63
2023-01-20T01:24:09.569Z,46.13
2023-01-20T01:26:37.149Z,47.37
2023-01-20T01:29:04.626Z,50.83
2023-01-20T01:31:32.276Z,52.43
2023-01-20T01:33:59.850Z,48.30
2023-01-20T01:36:27.422Z,54.33
2023-01-20T01:38:58.418Z,47.27
2023-01-20T01:41:26.966Z,54.70
2023-01-20T01:44:02.261Z,53.33
2023-01-20T01:46:30.007Z,53.23
2023-01-20T01:48:57.986Z,48.70
2023-01-20T01:51:27.210Z,52.60
2023-01-20T01:53:56.995Z,53.57
2023-01-20T01:56:25.328Z,48.00
2023-01-20T01:58:54.108Z,47.73
2023-01-20T02:01:21.771Z,46.03
2023-01-20T02:03:55.274Z,49.00
2023-01-20T02:06:23.953Z,48.17
2023-01-20T02:08:51.986Z,43.27
2023-01-20T02:11:19.602Z,49.90
2023-01-20T02:13:47.190Z,43.67
2023-01-20T02:16:20.983Z,47.93
2023-01-20T02:18:51.669Z,44.53
2023-01-20T02:21:37.759Z,48.13
2023-01-20T02:24:23.659Z,45.30
2023-01-20T02:26:51.196Z,48.60
2023-01-20T02:29:45.758Z,45.90
2023-01-20T02:32:13.294Z,46.03
2023-01-20T02:34:43.681Z,44.67
2023-01-20T02:37:14.023Z,46.13
2023-01-20T02:39:50.525Z,47.97
2023-01-20T02:42:25.127Z,45.73
2023-01-20T02:44:58.715Z,43.50
2023-01-20T02:47:32.223Z,46.27
2023-01-20T02:50:08.470Z,45.70
2023-01-20T02:52:37.419Z,49.50
2023-01-20T02:55:06.796Z,42.03
2023-01-20T02:57:46.196Z,41.97
2023-01-20T03:00:17.885Z,45.37
2023-01-20T03:02:46.823Z,42.67
2023-01-20T03:05:40.812Z,40.67
2023-01-20T03:08:09.431Z,45.57
2023-01-20T03:10:38.150Z,38.97
2023-01-20T03:13:10.480Z,36.60
2023-01-20T03:15:43.835Z,32.03
2023-01-20T03:18:11.396Z,43.03
2023-01-20T03:20:38.897Z,38.83
2023-01-20T03:23:06.449Z,42.27
2023-01-20T03:25:34.214Z,35.40
2023-01-20T03:28:01.743Z,41.33
2023-01-20T03:30:29.333Z,34.77
2023-01-20T03:32:57.165Z,35.93
2023-01-20T03:35:24.902Z,37.57
2023-01-20T03:37:52.501Z,36.87
2023-01-20T03:40:20.023Z,38.17
2023-01-20T03:42:53.400Z,37.97
2023-01-20T03:45:34.215Z,35.47
2023-01-20T03:48:04.816Z,35.00
2023-01-20T03:50:51.111Z,40.67
2023-01-20T03:53:24.810Z,38.50
2023-01-20T03:55:54.248Z,35.03
2023-01-20T03:58:24.382Z,37.90
2023-01-20T04:00:52.684Z,40.27
2023-01-20T04:03:22.038Z,34.70
2023-01-20T04:05:50.625Z,42.13
2023-01-20T04:08:19.354Z,40.67
2023-01-20T04:10:49.042Z,48.23
2023-01-20T04:13:16.675Z,42.47
2023-01-20T04:15:45.587Z,38.90
2023-01-20T04:18:14.206Z,41.40
2023-01-20T04:20:42.422Z,43.23
2023-01-20T04:23:15.025Z,40.33
2023-01-20T04:25:42.860Z,40.43
2023-01-20T04:28:10.363Z,38.37
2023-01-20T04:30:38.004Z,39.73
2023-01-20T04:33:05.532Z,41.93
2023-01-20T04:35:33.068Z,40.07
2023-01-20T04:38:00.573Z,40.23
2023-01-20T04:40:28.152Z,40.40
2023-01-20T04:42:55.707Z,37.97
2023-01-20T04:45:23.328Z,38.97
2023-01-20T04:47:50.828Z,40.87
2023-01-20T04:50:18.437Z,40.33
2023-01-20T04:52:45.921Z,40.30
2023-01-20T04:55:13.885Z,38.37
2023-01-20T04:57:41.566Z,33.83
2023-01-20T05:00:09.460Z,35.97
2023-01-20T05:02:36.997Z,36.27
2023-01-20T05:05:04.754Z,33.87
2023-01-20T05:07:32.295Z,36.93
2023-01-20T05:10:00.067Z,37.30
2023-01-20T05:12:27.727Z,32.87
2023-01-20T05:14:55.289Z,32.43
2023-01-20T05:17:22.787Z,31.27
2023-01-20T05:19:50.394Z,34.93
2023-01-20T05:22:17.897Z,33.10
2023-01-20T05:24:45.443Z,28.37
2023-01-20T05:27:12.959Z,36.23
2023-01-20T05:29:40.505Z,27.53
2023-01-20T05:32:07.988Z,34.13
2023-01-20T05:34:35.549Z,29.43
2023-01-20T05:37:03.068Z,26.87
2023-01-20T05:39:30.603Z,28.97
2023-01-20T05:41:58.072Z,30.97
2023-01-20T05:44:25.637Z,27.27
2023-01-20T05:46:53.171Z,27.13
2023-01-20T05:49:20.755Z,32.13
2023-01-20T05:51:48.261Z,29.57
2023-01-20T05:54:15.835Z,27.17
2023-01-20T05:56:43.309Z,30.07
2023-01-20T05:59:11.027Z,28.87
2023-01-20T06:01:38.580Z,26.93
2023-01-20T06:04:06.248Z,27.90
2023-01-20T06:06:33.916Z,25.83
2023-01-20T06:09:01.608Z,34.87
2023-01-20T06:11:29.131Z,27.53
2023-01-20T06:13:56.694Z,31.03
2023-01-20T06:16:24.279Z,31.83
2023-01-20T06:18:51.828Z,35.37
2023-01-20T06:21:19.364Z,31.17
2023-01-20T06:23:46.895Z,31.20
2023-01-20T06:26:14.573Z,32.93
2023-01-20T06:28:42.575Z,28.77
2023-01-20T06:31:11.914Z,33.47
2023-01-20T06:33:39.945Z,29.50
2023-01-20T06:36:07.837Z,30.97
2023-01-20T06:38:36.113Z,37.07
2023-01-20T06:41:05.019Z,33.93
2023-01-20T06:43:33.277Z,33.37
2023-01-20T06:46:05.092Z,35.37
2023-01-20T06:48:32.829Z,34.40
2023-01-20T06:51:19.902Z,34.90
2023-01-20T06:53:47.765Z,36.93
2023-01-20T06:56:16.049Z,30.33
2023-01-20T06:58:43.906Z,34.50
2023-01-20T07:01:13.080Z,33.20
2023-01-20T07:03:42.373Z,33.33
2023-01-20T07:06:23.285Z,29.60
2023-01-20T07:08:50.955Z,31.00
2023-01-20T07:11:18.492Z,33.10
2023-01-20T07:13:46.157Z,25.17
2023-01-20T07:16:15.742Z,29.63
2023-01-20T07:18:44.207Z,31.30
2023-01-20T07:21:12.234Z,31.10
2023-01-20T07:23:39.762Z,32.47
2023-01-20T07:26:08.362Z,32.67
2023-01-20T07:28:36.152Z,34.70
2023-01-20T07:31:07.685Z,33.13
2023-01-20T07:33:35.780Z,32.53
2023-01-20T07:36:03.453Z,30.80
2023-01-20T07:38:31.283Z,35.93
2023-01-20T07:41:00.096Z,34.30
2023-01-20T07:43:27.933Z,29.73
2023-01-20T07:45:56.505Z,34.10
2023-01-20T07:48:24.224Z,32.50
2023-01-20T07:51:02.497Z,35.80
2023-01-20T07:53:30.549Z,29.63
2023-01-20T07:56:01.271Z,35.20
2023-01-20T07:58:29.379Z,30.33
2023-01-20T08:00:57.087Z,31.40
2023-01-20T08:03:27.112Z,27.67
2023-01-20T08:05:54.955Z,31.80
2023-01-20T08:08:23.518Z,32.97
2023-01-20T08:10:54.707Z,27.70
2023-01-20T08:13:22.455Z,30.80
2023-01-20T08:15:49.970Z,30.93
2023-01-20T08:18:18.032Z,29.87
2023-01-20T08:20:45.545Z,31.07
2023-01-20T08:23:13.148Z,30.83
2023-01-20T08:25:40.615Z,32.43
2023-01-20T08:28:08.304Z,35.80
2023-01-20T08:30:36.131Z,30.10
2023-01-20T08:33:03.677Z,29.60
2023-01-20T08:35:31.156Z,28.83
2023-01-20T08:37:58.654Z,27.90
2023-01-20T08:40:26.178Z,31.37
2023-01-20T08:42:53.742Z,25.93
2023-01-20T08:45:21.225Z,28.20
2023-01-20T08:47:48.799Z,32.23
2023-01-20T08:50:16.451Z,28.90
2023-01-20T08:52:44.029Z,27.03
2023-01-20T08:55:12.043Z,26.73
2023-01-20T08:57:39.730Z,36.30
2023-01-20T09:00:08.819Z,35.33
2023-01-20T09:02:37.503Z,30.90
2023-01-20T09:05:05.462Z,32.23
2023-01-20T09:07:33.260Z,35.70
2023-01-20T09:10:00.827Z,30.10
2023-01-20T09:12:28.433Z,28.97
2023-01-20T09:14:55.948Z,26.17
2023-01-20T09:17:23.486Z,28.63
2023-01-20T09:19:50.993Z,31.57
2023-01-20T09:22:18.588Z,28.00
2023-01-20T09:24:46.051Z,23.97
2023-01-20T09:27:13.574Z,29.53
2023-01-20T09:29:41.106Z,31.10
2023-01-20T09:32:08.651Z,30.30
2023-01-20T09:34:36.279Z,24.23
2023-01-20T09:37:03.954Z,27.52
2023-01-20T09:39:31.518Z,23.70
2023-01-20T09:42:01.815Z,26.83
2023-01-20T09:44:38.493Z,20.90
2023-01-20T09:47:24.867Z,19.90
2023-01-20T09:49:52.407Z,24.20
2023-01-20T09:52:27.931Z,20.50
2023-01-20T09:54:59.500Z,22.00
2023-01-20T09:57:29.640Z,23.90
2023-01-20T10:00:04.109Z,24.87
2023-01-20T10:02:34.699Z,25.00
2023-01-20T10:05:08.493Z,22.03
2023-01-20T10:07:39.764Z,26.77
2023-01-20T10:10:19.233Z,24.07
2023-01-20T10:12:54.520Z,25.90
2023-01-20T10:15:27.281Z,21.70
2023-01-20T10:18:01.567Z,22.07
2023-01-20T10:20:32.240Z,21.43
2023-01-20T10:23:11.596Z,24.20
2023-01-20T10:25:41.578Z,21.47
2023-01-20T10:28:09.087Z,24.73
2023-01-20T10:30:37.236Z,25.47
2023-01-20T10:33:07.896Z,19.87
2023-01-20T10:35:37.925Z,21.27
2023-01-20T10:38:09.429Z,20.97
2023-01-20T10:40:41.743Z,20.53
2023-01-20T10:43:13.775Z,17.53
2023-01-20T10:45:59.947Z,22.20
2023-01-20T10:48:42.608Z,20.03
2023-01-20T10:51:17.846Z,20.27
2023-01-20T10:53:50.327Z,25.30
2023-01-20T10:56:26.528Z,18.40
2023-01-20T10:58:54.131Z,20.30
2023-01-20T11:01:21.705Z,17.33
2023-01-20T11:03:49.831Z,19.47
2023-01-20T11:06:22.052Z,18.90
2023-01-20T11:08:49.843Z,20.97
2023-01-20T11:11:20.910Z,20.13
2023-01-20T11:13:48.912Z,16.93
2023-01-20T11:16:24.933Z,17.73
2023-01-20T11:19:03.531Z,17.77
2023-01-20T11:21:32.507Z,19.87
2023-01-20T11:24:00.417Z,16.60
2023-01-20T11:26:32.739Z,22.77
2023-01-20T11:29:01.410Z,20.87
2023-01-20T11:31:49.225Z,15.83
2023-01-20T11:34:21.741Z,18.27
2023-01-20T11:36:49.980Z,15.50
2023-01-20T11:39:27.852Z,18.63
2023-01-20T11:42:21.872Z,16.50
2023-01-20T11:44:50.955Z,20.80
2023-01-20T11:47:18.412Z,17.20
2023-01-20T11:49:45.978Z,18.30
2023-01-20T11:52:20.885Z,17.10
2023-01-20T11:54:48.510Z,14.93
2023-01-20T11:57:17.612Z,16.80
2023-01-20T11:59:49.047Z,11.73
2023-01-20T12:02:23.906Z,16.10
2023-01-20T12:04:52.652Z,15.37
2023-01-20T12:07:23.254Z,18.13
2023-01-20T12:09:53.349Z,16.43
2023-01-20T12:12:41.008Z,16.07
2023-01-20T12:15:14.509Z,20.70
2023-01-20T12:17:42.118Z,19.43
2023-01-20T12:20:17.585Z,18.03
2023-01-20T12:22:59.589Z,18.70
2023-01-20T12:25:36.346Z,16.83
2023-01-20T12:28:13.210Z,15.93
2023-01-20T12:30:43.384Z,17.70
2023-01-20T12:33:18.974Z,18.47
2023-01-20T12:35:50.748Z,19.37
2023-01-20T12:38:19.587Z,18.70
2023-01-20T12:40:53.287Z,17.20
2023-01-20T12:43:34.821Z,18.83
2023-01-20T12:46:08.388Z,18.63
2023-01-20T12:48:49.696Z,21.77
2023-01-20T12:51:26.232Z,15.33
2023-01-20T12:54:02.838Z,18.67
2023-01-20T12:56:46.126Z,20.27
2023-01-20T12:59:32.544Z,15.63
2023-01-20T13:02:18.777Z,14.23
2023-01-20T13:04:46.406Z,12.30
2023-01-20T13:07:19.895Z,13.70
2023-01-20T13:10:06.115Z,14.93
2023-01-20T13:12:36.774Z,16.23
2023-01-20T13:15:10.280Z,15.07
2023-01-20T13:17:41.163Z,12.30
2023-01-20T13:20:29.066Z,14.50
2023-01-20T13:22:57.052Z,15.03
2023-01-20T13:25:25.037Z,16.27
2023-01-20T13:27:52.842Z,16.00
2023-01-20T13:30:39.256Z,12.80
2023-01-20T13:33:13.674Z,12.47
2023-01-20T13:35:44.688Z,12.03
2023-01-20T13:38:20.157Z,11.90
2023-01-20T13:40:49.747Z,10.17
2023-01-20T13:43:23.072Z,10.07
2023-01-20T13:46:05.919Z,7.30
2023-01-20T13:48:34.736Z,5.80
2023-01-20T13:51:17.291Z,7.37
2023-01-20T13:53:44.911Z,6.60
2023-01-20T13:56:31.571Z,4.83
2023-01-20T13:58:59.397Z,6.00
2023-01-20T14:01:28.020Z,3.57
2023-01-20T14:04:02.888Z,3.77
2023-01-20T14:06:30.636Z,3.77
2023-01-20T14:08:58.218Z,4.17
2023-01-20T14:11:26.973Z,2.87
2023-01-20T14:13:56.251Z,4.03
2023-01-20T14:16:26.493Z,2.27
2023-01-20T14:18:55.732Z,2.57
2023-01-20T14:21:24.967Z,3.90
2023-01-20T14:23:52.797Z,4.07
2023-01-20T14:26:25.119Z,5.10
2023-01-20T14:28:53.944Z,5.83
2023-01-20T14:31:23.530Z,7.67
2023-01-20T14:33:56.708Z,7.30
2023-01-20T14:36:25.463Z,9.83
2023-01-20T14:38:57.591Z,9.40
2023-01-20T14:41:45.472Z,7.77
2023-01-20T14:44:15.240Z,12.00
2023-01-20T14:46:42.980Z,13.77
2023-01-20T14:49:14.986Z,14.57
2023-01-20T14:51:42.793Z,12.70
2023-01-20T14:54:29.096Z,14.30
2023-01-20T14:56:57.486Z,13.33
2023-01-20T14:59:25.563Z,15.10
2023-01-20T15:01:54.232Z,15.03
2023-01-20T15:04:21.991Z,17.30
2023-01-20T15:06:53.606Z,20.27
2023-01-20T15:09:28.781Z,17.80
2023-01-20T15:12:15.332Z,16.90
2023-01-20T15:14:42.861Z,18.90
2023-01-20T15:17:10.437Z,17.47
2023-01-20T15:19:37.956Z,17.53
2023-01-20T15:22:16.686Z,18.37
2023-01-20T15:24:44.814Z,13.43
2023-01-20T15:27:26.344Z,17.60
2023-01-20T15:30:04.075Z,12.63
2023-01-20T15:32:31.683Z,13.70
2023-01-20T15:34:59.148Z,17.03
2023-01-20T15:37:26.686Z,14.27
2023-01-20T15:39:54.132Z,14.30
2023-01-20T15:42:21.622Z,15.93
2023-01-20T15:44:49.086Z,14.17
2023-01-20T15:47:16.650Z,11.97
2023-01-20T15:49:44.091Z,13.83
2023-01-20T15:52:11.787Z,16.77
2023-01-20T15:54:39.334Z,13.23
2023-01-20T15:57:13.604Z,12.83
2023-01-20T15:59:41.291Z,13.90
2023-01-20T16:02:16.751Z,12.37
2023-01-20T16:04:44.323Z,13.87
2023-01-20T16:07:15.510Z,16.03
2023-01-20T16:09:43.467Z,16.63
2023-01-20T16:12:17.606Z,13.30
2023-01-20T16:14:45.393Z,11.63
2023-01-20T16:17:17.179Z,13.30
2023-01-20T16:19:44.922Z,13.27
2023-01-20T16:22:12.391Z,13.60
2023-01-20T16:24:40.357Z,12.73
2023-01-20T16:27:21.759Z,9.43
2023-01-20T16:29:49.744Z,7.40
2023-01-20T16:32:19.630Z,7.33
2023-01-20T16:34:48.517Z,9.33
2023-01-20T16:37:16.078Z,9.47
2023-01-20T16:39:43.768Z,10.17
2023-01-20T16:42:12.863Z,13.50
2023-01-20T16:44:40.418Z,11.97
2023-01-20T16:47:07.887Z,11.50
2023-01-20T16:49:35.449Z,9.03
2023-01-20T16:52:02.980Z,10.63
2023-01-20T16:54:30.531Z,14.27
2023-01-20T16:56:58.062Z,12.87
2023-01-20T16:59:25.608Z,12.23
2023-01-20T17:01:53.280Z,11.63
2023-01-20T17:04:20.790Z,11.70
2023-01-20T17:06:48.318Z,11.60
2023-01-20T17:09:15.935Z,10.37
2023-01-20T17:11:43.443Z,10.33
2023-01-20T17:14:11.462Z,11.07
2023-01-20T17:16:39.387Z,12.23
2023-01-20T17:19:07.145Z,12.73
2023-01-20T17:21:37.511Z,12.37
2023-01-20T17:24:05.544Z,13.90
2023-01-20T17:26:33.278Z,16.13
2023-01-20T17:29:02.632Z,14.00
2023-01-20T17:31:30.426Z,12.07
2023-01-20T17:33:58.032Z,11.27
2023-01-20T17:36:25.550Z,10.97
2023-01-20T17:38:53.105Z,9.63
2023-01-20T17:41:20.651Z,11.70
2023-01-20T17:43:48.228Z,13.60
2023-01-20T17:46:17.019Z,13.90
2023-01-20T17:48:45.041Z,17.30
2023-01-20T17:51:19.670Z,15.43
2023-01-20T17:53:47.614Z,21.00
2023-01-20T17:56:15.406Z,18.60
2023-01-20T17:58:43.896Z,15.47
2023-01-20T18:01:19.116Z,17.33
2023-01-20T18:03:47.586Z,13.13
2023-01-20T18:06:15.886Z,15.37
2023-01-20T18:08:45.545Z,15.40
2023-01-20T18:11:14.385Z,14.33
2023-01-20T18:13:42.493Z,16.37
2023-01-20T18:16:10.799Z,17.03
2023-01-20T18:18:42.415Z,18.20
2023-01-20T18:21:09.997Z,19.83
2023-01-20T18:23:39.119Z,15.90
2023-01-20T18:26:07.843Z,21.13
2023-01-20T18:28:35.996Z,16.77
2023-01-20T18:31:08.015Z,20.80
2023-01-20T18:33:36.193Z,15.77
2023-01-20T18:36:03.841Z,19.50
2023-01-20T18:38:31.421Z,10.40
2023-01-20T18:40:58.867Z,18.37
2023-01-20T18:43:26.446Z,18.67
2023-01-20T18:45:54.253Z,16.93
2023-01-20T18:48:21.832Z,23.10
2023-01-20T18:50:49.480Z,18.30
2023-01-20T18:53:17.005Z,20.03
2023-01-20T18:55:44.596Z,18.63
2023-01-20T18:58:12.165Z,17.93
2023-01-20T19:00:39.841Z,18.60
2023-01-20T19:03:07.532Z,20.17
2023-01-20T19:05:35.038Z,11.57
2023-01-20T19:08:02.649Z,16.90
2023-01-20T19:10:30.146Z,18.90
2023-01-20T19:12:57.697Z,15.13
2023-01-20T19:15:25.202Z,22.10
2023-01-20T19:17:52.764Z,20.07
2023-01-20T19:20:20.269Z,21.27
2023-01-20T19:22:47.763Z,18.27
2023-01-20T19:25:15.336Z,20.40
2023-01-20T19:27:42.949Z,18.33
2023-01-20T19:30:10.710Z,19.00
2023-01-20T19:32:41.648Z,22.23
2023-01-20T19:35:09.883Z,22.87
2023-01-20T19:37:37.330Z,20.53
2023-01-20T19:40:05.311Z,19.53
2023-01-20T19:42:33.201Z,14.23
2023-01-20T19:45:00.721Z,17.67
2023-01-20T19:47:30.728Z,15.17
2023-01-20T19:49:58.322Z,17.33
2023-01-20T19:52:26.012Z,17.47
2023-01-20T19:54:53.553Z,21.07
2023-01-20T19:57:21.120Z,21.20
2023-01-20T19:59:48.685Z,15.57
2023-01-20T20:02:16.222Z,25.63
2023-01-20T20:04:43.765Z,15.50
2023-01-20T20:07:11.292Z,14.47
2023-01-20T20:09:38.921Z,21.97
2023-01-20T20:12:06.501Z,13.70
2023-01-20T20:14:34.212Z,11.97
2023-01-20T20:17:01.712Z,13.73
2023-01-20T20:19:29.433Z,21.70
2023-01-20T20:21:56.980Z,18.87
2023-01-20T20:24:25.510Z,14.57
2023-01-20T20:26:52.978Z,18.83
2023-01-20T20:29:20.516Z,26.63
2023-01-20T20:31:48.108Z,20.60
2023-01-20T20:34:17.201Z,18.73
2023-01-20T20:36:45.093Z,15.77
2023-01-20T20:39:17.301Z,21.00
2023-01-20T20:41:45.049Z,16.53
2023-01-20T20:44:12.655Z,13.03
2023-01-20T20:46:40.186Z,20.97
2023-01-20T20:49:07.789Z,17.80
2023-01-20T20:51:35.324Z,21.57
2023-01-20T20:54:03.418Z,17.80
2023-01-20T20:56:31.143Z,21.67
2023-01-20T20:59:02.334Z,19.10
2023-01-20T21:01:31.501Z,18.70
2023-01-20T21:03:59.016Z,22.03
2023-01-20T21:06:26.747Z,23.33
2023-01-20T21:08:54.258Z,21.93
2023-01-20T21:11:22.138Z,15.63
2023-01-20T21:13:49.817Z,18.60
2023-01-20T21:16:18.251Z,16.83
2023-01-20T21:18:45.746Z,16.23
2023-01-20T21:21:14.152Z,20.30
2023-01-20T21:23:41.638Z,16.90
2023-01-20T21:26:11.637Z,15.33
2023-01-20T21:28:39.899Z,21.10
2023-01-20T21:31:08.144Z,19.20
2023-01-20T21:33:38.025Z,22.53
2023-01-20T21:36:06.284Z,29.57
2023-01-20T21:38:33.826Z,20.53
2023-01-20T21:41:05.159Z,27.10
2023-01-20T21:43:33.359Z,28.53
2023-01-20T21:46:00.840Z,25.90
2023-01-20T21:48:28.703Z,19.63
2023-01-20T21:50:56.345Z,16.43
2023-01-20T21:53:23.923Z,22.37
2023-01-20T21:55:51.389Z,35.97
2023-01-20T21:58:18.937Z,23.70
2023-01-20T22:00:46.469Z,27.87
2023-01-20T22:03:14.044Z,30.43
2023-01-20T22:05:41.574Z,25.70
2023-01-20T22:08:09.086Z,28.07
2023-01-20T22:10:36.625Z,27.30
2023-01-20T22:13:04.217Z,27.23
2023-01-20T22:15:31.722Z,23.40
2023-01-20T22:17:59.351Z,20.30
2023-01-20T22:20:26.833Z,22.83
2023-01-20T22:22:54.353Z,22.77
2023-01-20T22:25:21.928Z,28.07
2023-01-20T22:27:49.482Z,29.90
2023-01-20T22:30:17.443Z,33.53
2023-01-20T22:32:45.326Z,17.53
2023-01-20T22:35:12.836Z,29.67
2023-01-20T22:37:40.404Z,32.20
2023-01-20T22:40:08.078Z,27.97
2023-01-20T22:42:35.610Z,42.47
2023-01-20T22:45:03.073Z,41.40
2023-01-20T22:47:30.563Z,39.33
2023-01-20T22:49:58.042Z,38.97
2023-01-20T22:52:25.645Z,36.10
2023-01-20T22:54:53.113Z,35.53
2023-01-20T22:57:20.617Z,36.50
2023-01-20T22:59:48.107Z,33.20
2023-01-20T23:02:15.639Z,40.77
2023-01-20T23:04:43.146Z,42.43
2023-01-20T23:07:10.786Z,50.23
2023-01-20T23:09:38.291Z,43.60
2023-01-20T23:12:06.008Z,40.43
2023-01-20T23:14:33.553Z,37.90
2023-01-20T23:17:01.151Z,34.67
2023-01-20T23:19:28.653Z,42.53
2023-01-20T23:21:56.137Z,37.40
2023-01-20T23:24:23.666Z,21.13
2023-01-20T23:26:53.279Z,42.07
2023-01-20T23:29:20.861Z,31.03
2023-01-20T23:31:48.385Z,37.10
2023-01-20T23:34:15.891Z,31.07
2023-01-20T23:36:43.386Z,28.77
2023-01-20T23:39:10.858Z,29.10
2023-01-20T23:41:38.391Z,43.67
2023-01-20T23:44:06.064Z,38.37
2023-01-20T23:46:33.654Z,37.50
2023-01-20T23:49:01.157Z,38.30
2023-01-20T23:51:28.755Z,42.57
2023-01-20T23:53:56.350Z,39.83
2023-01-20T23:56:24.633Z,24.73
2023-01-20T23:58:52.449Z,39.17
